createdAt,value
2022-10-05T00:02:18.430Z,13.97
2022-10-05T00:05:43.635Z,13.97
2022-10-05T00:09:08.876Z,13.96
2022-10-05T00:12:34.104Z,13.93
2022-10-05T00:15:59.312Z,13.92
2022-10-05T00:19:24.519Z,13.89
2022-10-05T00:22:49.729Z,13.87
2022-10-05T00:26:14.931Z,13.88
2022-10-05T00:29:40.097Z,13.86
2022-10-05T00:33:05.211Z,13.82
2022-10-05T00:36:30.360Z,13.8
2022-10-05T00:39:55.498Z,13.78
2022-10-05T00:43:20.625Z,13.77
2022-10-05T00:46:46.079Z,13.7
2022-10-05T00:50:10.895Z,13.66
2022-10-05T00:53:36.473Z,13.63
2022-10-05T00:57:01.630Z,13.64
2022-10-05T01:00:26.771Z,13.66
2022-10-05T01:03:51.930Z,13.7
2022-10-05T01:07:17.051Z,13.76
2022-10-05T01:10:42.191Z,13.75
2022-10-05T01:14:07.332Z,13.72
2022-10-05T01:17:32.484Z,13.68
2022-10-05T01:20:57.657Z,13.66
2022-10-05T01:24:22.772Z,13.66
2022-10-05T01:27:47.935Z,13.66
2022-10-05T01:31:13.134Z,13.66
2022-10-05T01:34:38.227Z,13.67
2022-10-05T01:38:03.399Z,13.67
2022-10-05T01:41:28.530Z,13.67
2022-10-05T01:44:53.666Z,13.66
2022-10-05T01:48:18.813Z,13.63
2022-10-05T01:51:43.961Z,13.64
2022-10-05T01:55:09.112Z,13.63
2022-10-05T01:58:34.236Z,13.63
2022-10-05T02:01:59.396Z,13.63
2022-10-05T02:05:24.504Z,13.57
2022-10-05T02:08:49.643Z,13.54
2022-10-05T02:12:14.824Z,13.51
2022-10-05T02:15:39.987Z,13.54
2022-10-05T02:19:05.082Z,13.56
2022-10-05T02:22:30.234Z,13.59
2022-10-05T02:25:55.367Z,13.63
2022-10-05T02:29:20.521Z,13.64
2022-10-05T02:32:45.635Z,13.65
2022-10-05T02:36:10.776Z,13.67
2022-10-05T02:39:35.903Z,13.65
2022-10-05T02:43:01.111Z,13.64
2022-10-05T02:46:26.381Z,13.62
2022-10-05T02:49:51.469Z,13.59
2022-10-05T02:53:16.686Z,13.55
2022-10-05T02:56:41.912Z,13.5
2022-10-05T03:00:07.107Z,13.51
2022-10-05T03:03:32.352Z,13.51
2022-10-05T03:06:57.522Z,13.48
2022-10-05T03:10:22.707Z,13.45
2022-10-05T03:13:47.932Z,13.46
2022-10-05T03:17:13.162Z,13.41
2022-10-05T03:20:38.455Z,13.39
2022-10-05T03:24:03.591Z,13.34
2022-10-05T03:27:28.807Z,13.28
2022-10-05T03:30:54.061Z,13.26
2022-10-05T03:34:19.238Z,13.25
2022-10-05T03:37:44.545Z,13.25
2022-10-05T03:41:09.631Z,13.26
2022-10-05T03:44:34.812Z,13.25
2022-10-05T03:48:01.541Z,13.27
2022-10-05T03:51:25.560Z,13.27
2022-10-05T03:54:50.804Z,13.26
2022-10-05T03:58:15.962Z,13.24
2022-10-05T04:01:41.171Z,13.23
2022-10-05T04:05:06.239Z,13.2
2022-10-05T04:08:31.369Z,13.15
2022-10-05T04:11:56.524Z,13.12
2022-10-05T04:15:21.647Z,13.07
2022-10-05T04:18:47.043Z,13.02
2022-10-05T04:22:12.176Z,12.98
2022-10-05T04:25:37.339Z,12.92
2022-10-05T04:29:02.555Z,12.83
2022-10-05T04:32:27.678Z,12.75
2022-10-05T04:35:52.909Z,12.68
2022-10-05T04:39:18.092Z,12.65
2022-10-05T04:42:43.265Z,12.61
2022-10-05T04:46:08.476Z,12.56
2022-10-05T04:49:33.628Z,12.54
2022-10-05T04:52:58.789Z,12.54
2022-10-05T04:56:23.977Z,12.55
2022-10-05T04:59:49.162Z,12.57
2022-10-05T05:03:14.371Z,12.56
2022-10-05T05:06:39.571Z,12.55
2022-10-05T05:10:04.768Z,12.54
2022-10-05T05:13:29.968Z,12.55
2022-10-05T05:16:55.172Z,12.52
2022-10-05T05:20:20.383Z,12.54
2022-10-05T05:23:45.542Z,12.54
2022-10-05T05:27:10.737Z,12.53
2022-10-05T05:30:35.950Z,12.53
2022-10-05T05:34:01.152Z,12.54
2022-10-05T05:37:26.351Z,12.58
2022-10-05T05:40:51.514Z,12.61
2022-10-05T05:44:16.696Z,12.64
2022-10-05T05:47:41.938Z,12.67
2022-10-05T05:51:07.066Z,12.7
2022-10-05T05:54:32.282Z,12.72
2022-10-05T05:57:57.435Z,12.73
2022-10-05T06:01:32.548Z,12.77
2022-10-05T06:04:47.880Z,12.77
2022-10-05T06:08:13.093Z,12.79
2022-10-05T06:11:38.330Z,12.77
2022-10-05T06:15:03.515Z,12.78
2022-10-05T06:18:28.725Z,12.83
2022-10-05T06:21:53.910Z,12.88
2022-10-05T06:25:19.126Z,12.92
2022-10-05T06:28:44.341Z,12.97
2022-10-05T06:32:09.608Z,13.03
2022-10-05T06:35:34.711Z,13.11
2022-10-05T06:38:59.922Z,13.17
2022-10-05T06:42:25.133Z,13.24
2022-10-05T06:45:50.420Z,13.31
2022-10-05T06:49:15.556Z,13.38
2022-10-05T06:52:40.810Z,13.43
2022-10-05T06:56:06.016Z,13.48
2022-10-05T06:59:31.233Z,13.55
2022-10-05T07:02:56.496Z,13.6
2022-10-05T07:06:21.651Z,13.66
2022-10-05T07:09:46.868Z,13.76
2022-10-05T07:13:12.087Z,13.82
2022-10-05T07:16:37.353Z,13.89
2022-10-05T07:20:02.636Z,13.91
2022-10-05T07:23:27.766Z,13.94
2022-10-05T07:26:53.003Z,13.99
2022-10-05T07:30:18.247Z,14.04
2022-10-05T07:33:43.432Z,14.11
2022-10-05T07:37:08.738Z,14.21
2022-10-05T07:40:33.906Z,14.3
2022-10-05T07:44:02.273Z,14.39
2022-10-05T07:47:24.385Z,14.48
2022-10-05T07:50:49.642Z,14.56
2022-10-05T07:54:14.915Z,14.63
2022-10-05T07:57:40.130Z,14.77
2022-10-05T08:01:05.353Z,14.91
2022-10-05T08:04:30.658Z,15.07
2022-10-05T08:07:55.901Z,15.2
2022-10-05T08:11:21.178Z,15.3
2022-10-05T08:14:46.443Z,15.38
2022-10-05T08:18:11.606Z,15.45
2022-10-05T08:21:36.758Z,15.53
2022-10-05T08:25:01.938Z,15.62
2022-10-05T08:28:27.180Z,15.69
2022-10-05T08:31:52.279Z,15.76
2022-10-05T08:35:17.483Z,15.83
2022-10-05T08:38:42.663Z,15.91
2022-10-05T08:42:07.858Z,15.99
2022-10-05T08:45:33.130Z,16.040001
2022-10-05T08:48:58.241Z,16.09
2022-10-05T08:52:23.436Z,16.17
2022-10-05T08:55:48.645Z,16.23
2022-10-05T08:59:13.847Z,16.32
2022-10-05T09:02:39.168Z,16.389999
2022-10-05T09:06:04.300Z,16.450001
2022-10-05T09:09:29.502Z,16.52
2022-10-05T09:12:54.759Z,16.559999
2022-10-05T09:16:20.031Z,16.629999
2022-10-05T09:19:45.215Z,16.67
2022-10-05T09:23:10.410Z,16.76
2022-10-05T09:26:36.412Z,16.809999
2022-10-05T09:30:01.662Z,16.84
2022-10-05T09:33:26.871Z,16.83
2022-10-05T09:36:52.289Z,16.84
2022-10-05T09:40:17.484Z,16.83
2022-10-05T09:43:42.716Z,16.799999
2022-10-05T09:47:08.005Z,16.77
2022-10-05T09:50:33.259Z,16.75
2022-10-05T09:53:58.556Z,16.73
2022-10-05T09:57:23.856Z,16.73
2022-10-05T10:00:51.564Z,16.75
2022-10-05T10:04:14.334Z,16.809999
2022-10-05T10:07:39.592Z,16.889999
2022-10-05T10:11:04.848Z,17.01
2022-10-05T10:14:30.101Z,17.08
2022-10-05T10:17:55.379Z,17.139999
2022-10-05T10:21:20.638Z,17.219999
2022-10-05T10:24:45.862Z,17.290001
2022-10-05T10:28:11.302Z,17.379999
2022-10-05T10:31:36.530Z,17.48
2022-10-05T10:35:01.866Z,17.59
2022-10-05T10:38:27.227Z,17.68
2022-10-05T10:41:52.680Z,17.790001
2022-10-05T10:45:18.282Z,17.93
2022-10-05T10:48:43.675Z,18.030001
2022-10-05T10:52:09.291Z,18.110001
2022-10-05T10:55:34.906Z,18.18
2022-10-05T10:59:00.635Z,18.25
2022-10-05T11:02:26.605Z,18.280001
2022-10-05T11:05:52.325Z,18.25
2022-10-05T11:09:17.836Z,18.26
2022-10-05T11:12:43.652Z,18.280001
2022-10-05T11:16:09.421Z,18.27
2022-10-05T11:19:40.673Z,18.23
2022-10-05T11:23:00.936Z,18.219999
2022-10-05T11:26:26.664Z,18.200001
2022-10-05T11:29:52.341Z,18.190001
2022-10-05T11:33:18.059Z,18.17
2022-10-05T11:36:43.887Z,18.16
2022-10-05T11:40:09.564Z,18.110001
2022-10-05T11:43:35.079Z,18.110001
2022-10-05T11:47:00.710Z,18.1
2022-10-05T11:50:26.363Z,18.059999
2022-10-05T11:53:51.875Z,18.09
2022-10-05T11:57:17.326Z,18.17
2022-10-05T12:00:42.928Z,18.25
2022-10-05T12:04:08.715Z,18.299999
2022-10-05T12:07:34.241Z,18.34
2022-10-05T12:10:59.963Z,18.35
2022-10-05T12:14:25.557Z,18.379999
2022-10-05T12:17:51.266Z,18.42
2022-10-05T12:21:16.931Z,18.42
2022-10-05T12:24:42.776Z,18.459999
2022-10-05T12:28:08.581Z,18.469999
2022-10-05T12:31:34.085Z,18.49
2022-10-05T12:35:01.554Z,18.49
2022-10-05T12:38:25.516Z,18.450001
2022-10-05T12:41:50.924Z,18.440001
2022-10-05T12:45:16.130Z,18.440001
2022-10-05T12:48:41.267Z,18.440001
2022-10-05T12:52:06.418Z,18.41
2022-10-05T12:55:31.585Z,18.35
2022-10-05T12:58:56.858Z,18.290001
2022-10-05T13:02:22.074Z,18.26
2022-10-05T13:05:47.251Z,18.27
2022-10-05T13:09:12.484Z,18.27
2022-10-05T13:12:37.632Z,18.309999
2022-10-05T13:16:02.843Z,18.370001
2022-10-05T13:19:27.981Z,18.43
2022-10-05T13:22:53.147Z,18.49
2022-10-05T13:26:18.347Z,18.530001
2022-10-05T13:29:43.545Z,18.51
2022-10-05T13:33:08.683Z,18.51
2022-10-05T13:36:33.988Z,18.5
2022-10-05T13:39:59.017Z,18.459999
2022-10-05T13:43:24.344Z,18.440001
2022-10-05T13:46:49.436Z,18.450001
2022-10-05T13:50:14.579Z,18.459999
2022-10-05T13:53:39.757Z,18.51
2022-10-05T13:57:04.912Z,18.549999
2022-10-05T14:00:30.115Z,18.59
2022-10-05T14:03:55.930Z,18.629999
2022-10-05T14:07:21.192Z,18.639999
2022-10-05T14:10:46.481Z,18.66
2022-10-05T14:14:20.732Z,18.67
2022-10-05T14:17:45.935Z,18.67
2022-10-05T14:21:11.269Z,18.68
2022-10-05T14:24:44.706Z,18.68
2022-10-05T14:28:01.547Z,18.709999
2022-10-05T15:03:21.163Z,16.700001
2022-10-05T15:06:46.240Z,17.65
2022-10-05T15:10:11.414Z,17.879999
2022-10-05T15:13:36.589Z,18.08
2022-10-05T15:17:01.827Z,18.24
2022-10-05T15:20:26.989Z,18.360001
2022-10-05T15:23:52.177Z,18.440001
2022-10-05T15:27:17.329Z,18.51
2022-10-05T15:30:42.558Z,18.530001
2022-10-05T15:34:07.746Z,18.57
2022-10-05T15:37:32.956Z,18.549999
2022-10-05T15:40:58.103Z,18.549999
2022-10-05T15:44:23.296Z,18.530001
2022-10-05T15:47:48.530Z,18.51
2022-10-05T15:51:13.765Z,18.51
2022-10-05T15:54:38.974Z,18.49
2022-10-05T15:58:04.150Z,18.43
2022-10-05T16:01:29.465Z,18.4
2022-10-05T16:04:54.653Z,18.379999
2022-10-05T16:08:20.076Z,18.35
2022-10-05T16:11:45.220Z,18.35
2022-10-05T16:15:10.291Z,18.33
2022-10-05T16:18:36.512Z,18.309999
2022-10-05T16:22:01.654Z,18.290001
2022-10-05T16:25:26.842Z,18.26
2022-10-05T16:28:52.091Z,18.219999
2022-10-05T16:32:17.237Z,18.17
2022-10-05T16:35:42.518Z,18.1
2022-10-05T16:39:07.726Z,18.059999
2022-10-05T16:42:32.912Z,18.040001
2022-10-05T16:45:58.233Z,17.98
2022-10-05T16:49:23.362Z,17.940001
2022-10-05T16:52:51.292Z,17.91
2022-10-05T16:56:16.470Z,17.879999
2022-10-05T16:59:41.684Z,17.83
2022-10-05T17:03:06.927Z,17.809999
2022-10-05T17:06:32.106Z,17.77
2022-10-05T17:09:57.357Z,17.74
2022-10-05T17:13:22.584Z,17.709999
2022-10-05T17:16:47.863Z,17.709999
2022-10-05T17:20:14.620Z,17.690001
2022-10-05T17:23:41.451Z,17.66
2022-10-05T17:27:06.676Z,17.65
2022-10-05T17:30:31.989Z,17.620001
2022-10-05T17:33:57.239Z,17.59
2022-10-05T17:37:22.493Z,17.59
2022-10-05T17:40:48.730Z,17.59
2022-10-05T17:44:13.905Z,17.57
2022-10-05T17:47:39.861Z,17.530001
2022-10-05T17:51:04.344Z,17.5
2022-10-05T17:54:29.665Z,17.48
2022-10-05T17:57:54.972Z,17.440001
2022-10-05T18:01:20.284Z,17.41
2022-10-05T18:04:45.514Z,17.389999
2022-10-05T18:08:10.806Z,17.379999
2022-10-05T18:11:36.084Z,17.370001
2022-10-05T18:15:01.233Z,17.370001
2022-10-05T18:18:26.781Z,17.35
2022-10-05T18:21:51.704Z,17.33
2022-10-05T18:25:16.917Z,17.34
2022-10-05T18:28:42.161Z,17.32
2022-10-05T18:32:07.308Z,17.32
2022-10-05T18:35:32.544Z,17.309999
2022-10-05T18:38:57.781Z,17.290001
2022-10-05T18:42:23.049Z,17.280001
2022-10-05T18:45:48.321Z,17.26
2022-10-05T18:49:13.516Z,17.23
2022-10-05T18:52:38.760Z,17.200001
2022-10-05T18:56:04.052Z,17.17
2022-10-05T18:59:29.354Z,17.15
2022-10-05T19:02:54.711Z,17.129999
2022-10-05T19:06:19.845Z,17.110001
2022-10-05T19:09:45.090Z,17.1
2022-10-05T19:13:10.341Z,17.07
2022-10-05T19:16:35.582Z,17.07
2022-10-05T19:20:00.848Z,17.059999
2022-10-05T19:23:26.361Z,17.049999
2022-10-05T19:26:51.345Z,17.040001
2022-10-05T19:30:16.606Z,17.02
2022-10-05T19:33:41.858Z,17
2022-10-05T19:37:07.104Z,17
2022-10-05T19:40:32.316Z,16.99
2022-10-05T19:43:57.534Z,16.98
2022-10-05T19:47:22.813Z,16.99
2022-10-05T19:50:48.074Z,17.02
2022-10-05T19:54:13.339Z,17.01
2022-10-05T19:57:38.648Z,17.030001
2022-10-05T20:01:03.777Z,17.040001
2022-10-05T20:04:28.926Z,17.059999
2022-10-05T20:07:54.132Z,17.059999
2022-10-05T20:11:19.330Z,17.049999
2022-10-05T20:14:44.503Z,17.049999
2022-10-05T20:18:09.681Z,17.049999
2022-10-05T20:21:34.853Z,17.040001
2022-10-05T20:25:00.063Z,17.030001
2022-10-05T20:28:25.594Z,17.01
2022-10-05T20:31:50.484Z,17.040001
2022-10-05T20:35:15.552Z,17.040001
2022-10-05T20:38:41.272Z,17.040001
2022-10-05T20:42:05.882Z,17.059999
2022-10-05T20:45:31.075Z,17.059999
2022-10-05T20:48:56.213Z,17.07
2022-10-05T20:52:21.365Z,17.09
2022-10-05T20:55:46.546Z,17.1
2022-10-05T20:59:11.708Z,17.120001
2022-10-05T21:02:36.910Z,17.139999
2022-10-05T21:06:02.039Z,17.15
2022-10-05T21:09:27.204Z,17.16
2022-10-05T21:12:52.377Z,17.16
2022-10-05T21:16:17.612Z,17.16
2022-10-05T21:19:42.758Z,17.139999
2022-10-05T21:23:07.902Z,17.15
2022-10-05T21:26:33.069Z,17.129999
2022-10-05T21:29:58.248Z,17.139999
2022-10-05T21:33:23.405Z,17.129999
2022-10-05T21:36:48.590Z,17.15
2022-10-05T21:40:13.732Z,17.15
2022-10-05T21:43:38.908Z,17.129999
2022-10-05T21:47:04.061Z,17.110001
2022-10-05T21:50:29.229Z,17.110001
2022-10-05T21:53:54.471Z,17.09
2022-10-05T21:57:19.578Z,17.059999
2022-10-05T22:00:44.838Z,17.02
2022-10-05T22:04:09.919Z,17.02
2022-10-05T22:07:35.131Z,17.01
2022-10-05T22:11:00.289Z,16.98
2022-10-05T22:14:25.442Z,16.950001
2022-10-05T22:17:50.600Z,16.959999
2022-10-05T22:21:15.811Z,16.969999
2022-10-05T22:24:40.998Z,16.950001
2022-10-05T22:28:06.240Z,16.950001
2022-10-05T22:31:31.382Z,16.98
2022-10-05T22:34:56.526Z,16.98
2022-10-05T22:38:21.690Z,16.959999
2022-10-05T22:41:46.870Z,16.92
2022-10-05T22:45:12.060Z,16.91
2022-10-05T22:48:37.198Z,16.889999
2022-10-05T22:52:02.383Z,16.85
2022-10-05T22:55:27.560Z,16.860001
2022-10-05T22:58:52.744Z,16.84
2022-10-05T23:02:17.972Z,16.82
2022-10-05T23:05:43.103Z,16.780001
2022-10-05T23:09:08.280Z,16.77
2022-10-05T23:12:33.443Z,16.76
2022-10-05T23:15:58.618Z,16.75
2022-10-05T23:19:23.833Z,16.73
2022-10-05T23:22:48.994Z,16.700001
2022-10-05T23:26:14.178Z,16.690001
2022-10-05T23:29:39.384Z,16.68
2022-10-05T23:33:04.552Z,16.67
2022-10-05T23:36:29.732Z,16.690001
2022-10-05T23:39:54.901Z,16.66
2022-10-05T23:43:20.082Z,16.66
2022-10-05T23:46:45.251Z,16.65
2022-10-05T23:50:10.436Z,16.639999
2022-10-05T23:53:35.675Z,16.639999
2022-10-05T23:57:00.840Z,16.629999
